createdAt,value
2024-04-14T00:00:15.673Z,15.40
2024-04-14T00:02:44.738Z,13.60
2024-04-14T00:05:12.770Z,12.33
2024-04-14T00:10:24.847Z,11.00
2024-04-14T00:12:52.157Z,12.50
2024-04-14T00:15:21.255Z,11.40
2024-04-14T00:17:48.549Z,11.50
2024-04-14T00:20:16.169Z,13.00
2024-04-14T00:25:38.605Z,8.50
2024-04-14T00:28:05.906Z,12.50
2024-04-14T00:30:33.188Z,14.00
2024-04-14T00:33:00.438Z,12.00
2024-04-14T00:35:29.595Z,13.60
2024-04-14T00:40:41.655Z,11.00
2024-04-14T00:43:09.649Z,14.33
2024-04-14T00:45:38.748Z,15.60
2024-04-14T00:48:07.846Z,12.20
2024-04-14T00:50:35.056Z,10.00
2024-04-14T00:55:49.751Z,12.00
2024-04-14T00:58:16.940Z,12.00
2024-04-14T01:00:44.391Z,14.00
2024-04-14T01:03:11.674Z,13.00
2024-04-14T01:05:40.723Z,11.60
2024-04-14T01:10:56.030Z,12.00
2024-04-14T01:13:23.129Z,7.67
2024-04-14T01:15:50.383Z,11.00
2024-04-14T01:18:19.430Z,10.80
2024-04-14T01:20:46.673Z,10.00
2024-04-14T01:25:58.351Z,13.50
2024-04-14T01:28:25.542Z,11.00
2024-04-14T01:30:52.892Z,13.00
2024-04-14T01:33:20.106Z,10.00
2024-04-14T01:35:47.288Z,11.00
2024-04-14T01:41:02.008Z,12.33
2024-04-14T01:43:29.123Z,8.00
2024-04-14T01:45:58.189Z,10.80
2024-04-14T01:48:25.506Z,13.50
2024-04-14T01:50:52.685Z,16.00
2024-04-14T01:56:04.467Z,14.00
2024-04-14T01:58:32.427Z,12.00
2024-04-14T02:00:59.608Z,13.00
2024-04-14T02:03:26.960Z,16.00
2024-04-14T02:05:54.196Z,12.00
2024-04-14T02:11:11.596Z,16.20
2024-04-14T02:13:40.670Z,14.00
2024-04-14T02:16:10.613Z,11.83
2024-04-14T02:18:39.682Z,12.20
2024-04-14T02:21:08.741Z,13.40
2024-04-14T02:26:34.465Z,13.40
2024-04-14T02:29:04.395Z,12.17
2024-04-14T02:31:32.380Z,11.33
2024-04-14T02:33:59.625Z,13.00
2024-04-14T02:36:26.893Z,12.00
2024-04-14T02:41:38.793Z,8.00
2024-04-14T02:44:05.985Z,13.50
2024-04-14T02:46:33.203Z,15.00
2024-04-14T02:49:01.261Z,14.67
2024-04-14T02:51:28.589Z,12.50
2024-04-14T02:56:50.993Z,10.50
2024-04-14T02:59:18.999Z,16.00
2024-04-14T03:01:47.119Z,13.00
2024-04-14T03:04:14.598Z,13.00
2024-04-14T03:06:44.660Z,11.33
2024-04-14T03:11:56.275Z,12.50
2024-04-14T03:14:23.497Z,15.50
2024-04-14T03:16:50.766Z,13.00
2024-04-14T03:19:18.020Z,14.00
2024-04-14T03:21:45.253Z,12.50
2024-04-14T03:26:58.170Z,13.00
2024-04-14T03:29:25.327Z,11.50
2024-04-14T03:31:52.608Z,13.00
2024-04-14T03:34:19.868Z,12.00
2024-04-14T03:36:47.070Z,11.00
2024-04-14T03:39:16.999Z,13.00
2024-04-14T03:41:45.005Z,10.75
2024-04-14T03:44:12.183Z,12.50
2024-04-14T03:46:41.220Z,13.60
2024-04-14T03:49:08.466Z,14.00
2024-04-14T03:51:35.802Z,10.00
2024-04-14T03:54:03.024Z,10.00
2024-04-14T03:56:30.185Z,11.00
2024-04-14T03:58:57.334Z,9.00
2024-04-14T04:01:24.713Z,12.00
2024-04-14T04:03:51.979Z,11.50
2024-04-14T04:06:21.131Z,11.60
2024-04-14T04:08:49.121Z,11.00
2024-04-14T04:11:16.396Z,13.00
2024-04-14T04:13:43.549Z,13.00
2024-04-14T04:16:13.470Z,11.83
2024-04-14T04:18:43.521Z,11.17
2024-04-14T04:21:14.309Z,12.14
2024-04-14T04:23:41.381Z,8.67
2024-04-14T04:26:08.547Z,12.50
2024-04-14T04:28:35.680Z,8.67
2024-04-14T04:31:02.901Z,11.00
2024-04-14T04:33:30.224Z,12.50
2024-04-14T04:35:57.445Z,15.00
2024-04-14T04:38:26.495Z,11.20
2024-04-14T04:40:54.517Z,11.25
2024-04-14T04:43:21.674Z,12.50
2024-04-14T04:45:48.890Z,13.50
2024-04-14T04:48:18.016Z,12.20
2024-04-14T04:50:45.262Z,9.50
2024-04-14T04:53:12.410Z,10.50
2024-04-14T04:55:39.573Z,6.00
2024-04-14T04:58:09.492Z,10.67
2024-04-14T05:00:39.528Z,10.33
2024-04-14T05:03:06.766Z,8.00
2024-04-14T05:05:33.943Z,11.00
2024-04-14T05:08:02.953Z,10.80
2024-04-14T05:10:32.272Z,10.00
2024-04-14T05:13:00.525Z,9.75
2024-04-14T05:15:27.726Z,10.00
2024-04-14T05:17:54.952Z,10.50
2024-04-14T05:20:22.158Z,8.00
2024-04-14T05:22:50.099Z,9.50
2024-04-14T05:25:19.124Z,12.60
2024-04-14T05:30:30.917Z,11.00
2024-04-14T05:33:00.048Z,12.80
2024-04-14T05:35:29.983Z,10.67
2024-04-14T05:37:57.206Z,15.00
2024-04-14T05:40:24.356Z,13.00
2024-04-14T05:45:37.901Z,13.00
2024-04-14T05:48:05.142Z,12.00
2024-04-14T05:50:34.228Z,11.40
2024-04-14T05:53:01.930Z,14.00
2024-04-14T05:55:31.070Z,11.40
2024-04-14T06:00:44.661Z,12.00
2024-04-14T06:03:11.992Z,12.00
2024-04-14T06:05:42.061Z,11.33
2024-04-14T06:08:09.295Z,12.50
2024-04-14T06:10:40.050Z,12.57
2024-04-14T06:15:52.534Z,12.33
2024-04-14T06:18:20.694Z,14.33
2024-04-14T06:20:47.898Z,11.50
2024-04-14T06:23:18.533Z,14.33
2024-04-14T06:25:47.454Z,13.00
2024-04-14T06:31:00.285Z,12.00
2024-04-14T06:33:31.080Z,14.29
2024-04-14T06:35:59.088Z,13.67
2024-04-14T06:38:26.361Z,13.00
2024-04-14T06:40:54.332Z,15.00
2024-04-14T06:46:06.094Z,12.50
2024-04-14T06:48:33.328Z,12.00
2024-04-14T06:51:00.591Z,14.00
2024-04-14T06:53:28.646Z,14.67
2024-04-14T06:55:55.891Z,16.00
2024-04-14T07:01:10.541Z,13.67
2024-04-14T07:03:37.795Z,13.00
2024-04-14T07:06:08.522Z,13.29
2024-04-14T07:08:35.769Z,14.50
2024-04-14T07:11:03.758Z,13.00
2024-04-14T07:16:16.588Z,14.33
2024-04-14T07:18:43.942Z,14.00
2024-04-14T07:21:11.936Z,15.33
2024-04-14T07:23:39.143Z,14.00
2024-04-14T07:26:08.170Z,13.00
2024-04-14T07:31:25.778Z,11.60
2024-04-14T07:33:55.007Z,12.40
2024-04-14T07:36:24.140Z,13.40
2024-04-14T07:38:53.190Z,13.60
2024-04-14T07:41:21.171Z,13.00
2024-04-14T07:46:35.577Z,13.50
2024-04-14T07:49:02.811Z,14.00
2024-04-14T07:51:30.067Z,16.00
2024-04-14T07:53:59.205Z,13.20
2024-04-14T07:56:28.244Z,14.40
2024-04-14T08:01:45.057Z,12.00
2024-04-14T08:04:12.305Z,13.00
2024-04-14T08:06:41.449Z,11.20
2024-04-14T08:09:08.657Z,11.50
2024-04-14T08:11:35.893Z,12.00
2024-04-14T08:16:52.301Z,11.83
2024-04-14T08:19:19.475Z,12.50
2024-04-14T08:21:46.657Z,10.50
2024-04-14T08:24:14.667Z,10.67
2024-04-14T08:26:44.569Z,10.83
2024-04-14T08:31:59.879Z,14.67
2024-04-14T08:34:27.894Z,14.33
2024-04-14T08:36:57.835Z,8.67
2024-04-14T08:39:25.033Z,12.00
2024-04-14T08:41:53.012Z,12.00
2024-04-14T08:47:04.713Z,13.00
2024-04-14T08:49:33.748Z,10.60
2024-04-14T08:52:02.793Z,9.60
2024-04-14T08:54:30.167Z,12.50
2024-04-14T08:56:58.225Z,11.50
2024-04-14T09:02:10.166Z,12.00
2024-04-14T09:04:39.231Z,11.80
2024-04-14T09:07:07.349Z,10.25
2024-04-14T09:09:34.630Z,11.50
2024-04-14T09:12:03.670Z,12.00
2024-04-14T09:17:17.320Z,10.60
2024-04-14T09:19:44.551Z,12.00
2024-04-14T09:22:11.800Z,11.50
2024-04-14T09:24:39.065Z,13.50
2024-04-14T09:27:07.042Z,8.75
2024-04-14T09:32:19.687Z,10.00
2024-04-14T09:34:49.610Z,12.83
2024-04-14T09:37:16.768Z,12.00
2024-04-14T09:39:46.686Z,10.17
2024-04-14T09:42:15.704Z,11.00
2024-04-14T09:47:27.370Z,12.00
2024-04-14T09:49:54.610Z,11.00
2024-04-14T09:52:23.636Z,12.00
2024-04-14T09:54:50.875Z,11.50
2024-04-14T09:57:18.019Z,12.50
2024-04-14T10:02:30.875Z,13.00
2024-04-14T10:04:57.874Z,12.00
2024-04-14T10:07:26.925Z,13.60
2024-04-14T10:09:54.173Z,13.50
2024-04-14T10:12:21.381Z,10.50
2024-04-14T10:17:45.144Z,14.00
2024-04-14T10:20:14.222Z,13.40
2024-04-14T10:22:41.467Z,10.50
2024-04-14T10:25:10.563Z,11.60
2024-04-14T10:27:39.639Z,11.40
2024-04-14T10:32:55.040Z,12.60
2024-04-14T10:35:22.312Z,12.50
2024-04-14T10:37:49.490Z,10.00
2024-04-14T10:40:16.670Z,14.00
2024-04-14T10:42:43.919Z,11.50
2024-04-14T10:47:58.705Z,9.80
2024-04-14T10:50:28.710Z,12.00
2024-04-14T10:52:55.855Z,11.00
2024-04-14T10:55:23.880Z,10.00
2024-04-14T10:57:51.925Z,10.50
2024-04-14T11:03:05.431Z,7.00
2024-04-14T11:05:34.469Z,10.60
2024-04-14T11:08:01.646Z,9.50
2024-04-14T11:10:28.793Z,8.00
2024-04-14T11:12:56.824Z,9.75
2024-04-14T11:18:19.732Z,8.00
2024-04-14T11:20:46.842Z,7.00
2024-04-14T11:23:14.787Z,6.00
2024-04-14T11:25:41.907Z,9.00
2024-04-14T11:28:09.969Z,8.00
2024-04-14T11:33:22.633Z,9.00
2024-04-14T11:35:49.864Z,8.00
2024-04-14T11:38:16.988Z,10.00
2024-04-14T11:40:44.077Z,7.50
2024-04-14T11:43:11.424Z,7.67
2024-04-14T11:48:22.892Z,7.00
2024-04-14T11:50:50.182Z,7.00
2024-04-14T11:53:18.441Z,7.50
2024-04-14T11:55:45.839Z,7.00
2024-04-14T11:58:13.873Z,7.50
2024-04-14T12:03:26.492Z,6.25
2024-04-14T12:05:53.688Z,6.33
2024-04-14T12:08:20.762Z,6.00
2024-04-14T12:10:47.864Z,5.67
2024-04-14T12:13:15.926Z,7.25
2024-04-14T12:18:27.787Z,6.67
2024-04-14T12:20:54.872Z,7.33
2024-04-14T12:23:22.092Z,7.00
2024-04-14T12:25:50.087Z,8.00
2024-04-14T12:28:18.050Z,10.50
2024-04-14T12:31:06.306Z,9.83
2024-04-14T12:33:36.213Z,8.67
2024-04-14T12:36:03.414Z,11.00
2024-04-14T12:38:30.520Z,10.00
2024-04-14T12:41:00.420Z,10.17
2024-04-14T12:43:27.573Z,10.00
2024-04-14T12:48:40.106Z,10.00
2024-04-14T12:51:07.291Z,11.00
2024-04-14T12:53:34.468Z,12.00
2024-04-14T12:56:01.580Z,8.00
2024-04-14T12:58:28.658Z,8.00
2024-04-14T13:00:55.754Z,7.00
2024-04-14T13:03:23.228Z,8.00
2024-04-14T13:05:50.317Z,6.00
2024-04-14T13:08:17.397Z,6.00
2024-04-14T13:10:44.494Z,5.33
2024-04-14T13:13:11.586Z,5.33
2024-04-14T13:15:38.762Z,6.00
2024-04-14T13:18:05.981Z,8.67
2024-04-14T13:20:33.094Z,6.00
2024-04-14T13:23:00.172Z,5.67
2024-04-14T13:25:27.277Z,9.67
2024-04-14T13:27:55.264Z,8.00
2024-04-14T13:30:23.248Z,6.00
2024-04-14T13:32:50.387Z,5.33
2024-04-14T13:35:17.504Z,5.33
2024-04-14T13:37:44.587Z,5.67
2024-04-14T13:40:11.781Z,4.33
2024-04-14T13:42:38.706Z,5.00
2024-04-14T13:45:05.868Z,6.00
2024-04-14T13:47:33.006Z,5.33
2024-04-14T13:49:59.916Z,5.33
2024-04-14T13:52:26.989Z,5.00
2024-04-14T13:54:54.134Z,6.00
2024-04-14T13:57:21.241Z,5.00
2024-04-14T13:59:48.316Z,4.67
2024-04-14T14:02:16.379Z,3.75
2024-04-14T14:04:43.518Z,4.00
2024-04-14T14:07:10.645Z,4.67
2024-04-14T14:09:37.859Z,4.00
2024-04-14T14:12:04.995Z,5.00
2024-04-14T14:14:32.959Z,7.00
2024-04-14T14:17:00.205Z,5.33
2024-04-14T14:19:29.013Z,4.33
2024-04-14T14:21:56.403Z,4.00
2024-04-14T14:24:23.288Z,3.33
2024-04-14T14:26:50.349Z,2.67
2024-04-14T14:29:17.488Z,4.00
2024-04-14T14:31:44.597Z,4.00
2024-04-14T14:36:57.458Z,3.00
2024-04-14T14:39:24.634Z,2.00
2024-04-14T14:41:51.796Z,3.67
2024-04-14T14:44:19.742Z,3.00
2024-04-14T14:46:46.777Z,1.00
2024-04-14T14:51:58.242Z,2.67
2024-04-14T14:54:25.358Z,4.00
2024-04-14T14:56:52.391Z,3.00
2024-04-14T14:59:19.502Z,2.00
2024-04-14T15:01:46.623Z,2.00
2024-04-14T15:06:58.328Z,2.33
2024-04-14T15:09:25.409Z,1.00
2024-04-14T15:11:52.466Z,2.00
2024-04-14T15:14:19.510Z,1.00
2024-04-14T15:16:46.601Z,2.00
2024-04-14T15:21:58.190Z,2.67
2024-04-14T15:24:25.275Z,2.00
2024-04-14T15:26:52.392Z,2.33
2024-04-14T15:29:19.482Z,2.00
2024-04-14T15:31:49.526Z,1.67
2024-04-14T15:37:01.020Z,2.00
2024-04-14T15:39:28.157Z,1.33
2024-04-14T15:41:55.260Z,2.00
2024-04-14T15:44:27.324Z,3.67
2024-04-14T15:46:55.071Z,3.33
2024-04-14T15:52:07.864Z,3.00
2024-04-14T15:54:36.001Z,1.00
2024-04-14T15:57:03.183Z,2.00
2024-04-14T15:59:33.058Z,1.67
2024-04-14T16:02:00.147Z,2.00
2024-04-14T16:07:12.480Z,3.00
2024-04-14T16:09:39.586Z,2.00
2024-04-14T16:12:06.724Z,2.00
2024-04-14T16:14:33.783Z,3.00
2024-04-14T16:17:00.864Z,2.00
2024-04-14T16:22:12.574Z,2.00
2024-04-14T16:24:39.697Z,1.00
2024-04-14T16:27:06.809Z,3.33
2024-04-14T16:29:34.029Z,2.33
2024-04-14T16:32:01.190Z,3.00
2024-04-14T16:37:13.118Z,1.00
2024-04-14T16:39:40.232Z,1.67
2024-04-14T16:42:07.332Z,1.00
2024-04-14T16:44:34.403Z,2.00
2024-04-14T16:47:01.538Z,2.33
2024-04-14T16:52:13.067Z,3.00
2024-04-14T16:54:40.218Z,2.67
2024-04-14T16:57:07.473Z,2.00
2024-04-14T16:59:34.537Z,2.00
2024-04-14T17:02:01.579Z,2.67
2024-04-14T17:07:13.516Z,1.00
2024-04-14T17:09:40.592Z,1.00
2024-04-14T17:12:07.859Z,2.67
2024-04-14T17:14:34.986Z,1.67
2024-04-14T17:17:02.101Z,4.00
2024-04-14T17:22:13.891Z,2.33
2024-04-14T17:24:41.046Z,4.00
2024-04-14T17:27:08.201Z,2.33
2024-04-14T17:29:35.261Z,1.33
2024-04-14T17:32:02.404Z,2.00
2024-04-14T17:37:14.024Z,2.00
2024-04-14T17:39:41.155Z,3.00
2024-04-14T17:42:08.276Z,4.00
2024-04-14T17:44:35.363Z,2.33
2024-04-14T17:47:02.448Z,2.00
2024-04-14T17:52:14.517Z,2.00
2024-04-14T17:54:41.631Z,3.00
2024-04-14T17:57:08.674Z,2.67
2024-04-14T17:59:35.849Z,4.33
2024-04-14T18:02:03.010Z,3.00
2024-04-14T18:04:30.147Z,4.00
2024-04-14T18:06:57.576Z,4.67
2024-04-14T18:09:24.705Z,4.00
2024-04-14T18:11:51.753Z,3.33
2024-04-14T18:14:18.834Z,3.00
2024-04-14T18:16:45.926Z,3.33
2024-04-14T18:19:13.040Z,1.33
2024-04-14T18:21:40.204Z,3.00
2024-04-14T18:24:07.344Z,8.67
2024-04-14T18:26:34.443Z,7.67
2024-04-14T18:29:01.555Z,8.00
2024-04-14T18:31:28.729Z,6.00
2024-04-14T18:33:55.903Z,4.33
2024-04-14T18:36:23.000Z,5.33
2024-04-14T18:38:50.080Z,5.67
2024-04-14T18:41:18.037Z,7.50
2024-04-14T18:43:45.113Z,6.00
2024-04-14T18:46:12.704Z,5.00
2024-04-14T18:48:39.912Z,5.00
2024-04-14T18:51:07.089Z,6.67
2024-04-14T18:53:34.220Z,5.67
2024-04-14T18:56:01.280Z,6.00
2024-04-14T18:58:31.339Z,7.67
2024-04-14T19:00:59.865Z,5.00
2024-04-14T19:03:27.035Z,3.67
2024-04-14T19:05:54.144Z,4.67
2024-04-14T19:08:22.124Z,3.25
2024-04-14T19:10:49.221Z,5.00
2024-04-14T19:13:16.352Z,5.00
2024-04-14T19:15:43.453Z,4.00
2024-04-14T19:18:11.605Z,3.75
2024-04-14T19:20:38.858Z,3.00
2024-04-14T19:23:05.999Z,3.00
2024-04-14T19:25:33.113Z,4.00
2024-04-14T19:28:00.231Z,5.33
2024-04-14T19:30:27.367Z,5.00
2024-04-14T19:32:54.505Z,5.00
2024-04-14T19:35:21.636Z,4.33
2024-04-14T19:40:33.375Z,6.00
2024-04-14T19:43:00.496Z,4.00
2024-04-14T19:45:27.635Z,4.33
2024-04-14T19:47:54.818Z,4.33
2024-04-14T19:50:21.967Z,4.00
2024-04-14T19:55:33.440Z,4.00
2024-04-14T19:58:00.544Z,3.67
2024-04-14T20:00:27.728Z,3.00
2024-04-14T20:02:54.837Z,2.67
2024-04-14T20:05:21.926Z,5.00
2024-04-14T20:10:33.793Z,3.00
2024-04-14T20:13:01.020Z,3.00
2024-04-14T20:15:28.184Z,3.00
2024-04-14T20:17:55.320Z,2.00
2024-04-14T20:20:22.438Z,2.33
2024-04-14T20:25:34.223Z,3.33
2024-04-14T20:28:01.341Z,2.33
2024-04-14T20:30:28.452Z,3.33
2024-04-14T20:32:55.579Z,3.00
2024-04-14T20:35:24.838Z,4.33
2024-04-14T20:40:36.642Z,2.33
2024-04-14T20:43:03.835Z,2.67
2024-04-14T20:45:30.940Z,1.00
2024-04-14T20:47:58.082Z,3.00
2024-04-14T20:50:25.194Z,3.00
2024-04-14T20:55:36.977Z,3.33
2024-04-14T20:58:04.170Z,2.00
2024-04-14T21:00:31.487Z,3.00
2024-04-14T21:02:58.597Z,2.33
2024-04-14T21:05:25.716Z,2.67
2024-04-14T21:10:37.187Z,1.00
2024-04-14T21:13:04.314Z,2.33
2024-04-14T21:15:31.402Z,3.67
2024-04-14T21:17:58.634Z,4.67
2024-04-14T21:20:25.755Z,2.33
2024-04-14T21:25:47.433Z,3.00
2024-04-14T21:28:14.543Z,2.67
2024-04-14T21:30:41.726Z,3.00
2024-04-14T21:33:08.970Z,4.00
2024-04-14T21:35:36.100Z,2.67
2024-04-14T21:40:47.797Z,4.00
2024-04-14T21:43:14.929Z,2.33
2024-04-14T21:45:42.051Z,2.00
2024-04-14T21:48:09.244Z,2.00
2024-04-14T21:50:36.364Z,2.00
2024-04-14T21:55:48.132Z,2.00
2024-04-14T21:58:15.341Z,2.00
2024-04-14T22:00:42.579Z,4.00
2024-04-14T22:03:09.710Z,1.33
2024-04-14T22:05:36.778Z,3.00
2024-04-14T22:10:48.308Z,3.67
2024-04-14T22:13:15.474Z,4.00
2024-04-14T22:15:42.576Z,2.00
2024-04-14T22:18:09.741Z,3.33
2024-04-14T22:20:36.830Z,4.67
2024-04-14T22:25:58.345Z,3.00
2024-04-14T22:28:28.204Z,3.67
2024-04-14T22:30:55.279Z,2.67
2024-04-14T22:33:22.358Z,3.33
2024-04-14T22:35:49.448Z,3.00
2024-04-14T22:41:02.246Z,3.67
2024-04-14T22:43:29.343Z,3.33
2024-04-14T22:45:56.501Z,4.00
2024-04-14T22:48:23.624Z,3.00
2024-04-14T22:50:50.700Z,2.67
2024-04-14T22:56:02.444Z,3.33
2024-04-14T22:58:29.505Z,2.33
2024-04-14T23:00:56.658Z,4.00
2024-04-14T23:03:23.805Z,3.00
2024-04-14T23:05:50.884Z,2.67
2024-04-14T23:11:02.449Z,2.00
2024-04-14T23:13:29.541Z,3.00
2024-04-14T23:15:56.660Z,3.00
2024-04-14T23:18:23.902Z,2.33
2024-04-14T23:20:51.166Z,2.67
2024-04-14T23:26:03.915Z,2.67
2024-04-14T23:28:31.034Z,3.67
2024-04-14T23:30:58.168Z,3.67
2024-04-14T23:33:25.255Z,2.00
2024-04-14T23:35:52.335Z,3.33
2024-04-14T23:38:19.455Z,2.00
2024-04-14T23:40:46.564Z,4.00
2024-04-14T23:43:13.688Z,2.33
2024-04-14T23:45:41.869Z,5.00
2024-04-14T23:48:09.047Z,4.67
2024-04-14T23:50:36.132Z,2.33
2024-04-14T23:53:03.206Z,3.33
2024-04-14T23:55:30.304Z,4.33
2024-04-14T23:57:57.466Z,4.00
